createdAt,value
2022-07-26T00:03:17.604Z,0.00
2022-07-26T00:08:18.922Z,0.00
2022-07-26T00:13:16.269Z,0.00
2022-07-26T00:18:16.430Z,0.00
2022-07-26T00:23:15.526Z,0.00
2022-07-26T00:28:13.855Z,0.00
2022-07-26T00:33:13.175Z,0.00
2022-07-26T00:38:14.458Z,0.00
2022-07-26T00:43:11.798Z,0.00
2022-07-26T00:48:11.937Z,0.00
2022-07-26T00:53:12.230Z,0.00
2022-07-26T00:58:09.580Z,0.00
2022-07-26T01:03:11.830Z,0.00
2022-07-26T01:08:09.965Z,0.00
2022-07-26T01:13:08.297Z,0.00
2022-07-26T01:18:08.425Z,0.00
2022-07-26T01:23:05.771Z,0.00
2022-07-26T01:28:04.906Z,0.00
2022-07-26T01:33:06.534Z,0.00
2022-07-26T01:38:04.248Z,0.00
2022-07-26T01:43:01.397Z,0.00
2022-07-26T01:48:02.533Z,0.00
2022-07-26T01:53:00.874Z,0.00
2022-07-26T01:58:00.194Z,0.00
2022-07-26T02:02:59.610Z,0.00
2022-07-26T02:07:58.832Z,0.00
2022-07-26T02:12:58.054Z,0.00
2022-07-26T02:17:57.377Z,0.00
2022-07-26T02:22:56.683Z,0.00
2022-07-26T02:27:56.017Z,0.00
2022-07-26T02:32:56.327Z,0.00
2022-07-26T02:37:55.638Z,0.00
2022-07-26T02:42:53.997Z,0.00
2022-07-26T02:47:54.098Z,0.00
2022-07-26T02:52:53.388Z,0.00
2022-07-26T02:57:52.720Z,0.00
2022-07-26T03:02:52.956Z,0.00
2022-07-26T03:07:52.111Z,0.00
2022-07-26T03:12:50.446Z,0.00
2022-07-26T03:17:48.619Z,0.00
2022-07-26T03:22:47.735Z,0.00
2022-07-26T03:27:47.073Z,0.00
2022-07-26T03:32:47.374Z,0.00
2022-07-26T03:37:47.612Z,0.00
2022-07-26T03:42:44.756Z,0.00
2022-07-26T03:47:44.971Z,0.00
2022-07-26T03:52:44.285Z,0.00
2022-07-26T03:57:44.605Z,0.00
2022-07-26T04:02:41.947Z,0.00
2022-07-26T04:07:41.099Z,0.00
2022-07-26T04:12:40.244Z,4.00
2022-07-26T04:17:40.571Z,4.00
2022-07-26T04:22:38.877Z,4.00
2022-07-26T04:27:39.140Z,8.00
2022-07-26T04:32:38.423Z,4.00
2022-07-26T04:37:37.740Z,4.00
2022-07-26T04:42:36.036Z,8.00
2022-07-26T04:47:35.356Z,8.00
2022-07-26T04:52:35.698Z,4.00
2022-07-26T04:57:33.812Z,8.00
2022-07-26T05:02:35.172Z,12.00
2022-07-26T05:07:33.297Z,24.00
2022-07-26T05:12:33.466Z,24.00
2022-07-26T05:17:30.609Z,12.00
2022-07-26T05:22:31.844Z,24.00
2022-07-26T05:27:28.934Z,16.00
2022-07-26T05:32:29.299Z,12.00
2022-07-26T05:37:28.411Z,24.00
2022-07-26T05:42:27.734Z,28.00
2022-07-26T05:47:27.896Z,44.00
2022-07-26T05:52:25.001Z,44.00
2022-07-26T05:57:26.335Z,56.00
2022-07-26T06:02:24.683Z,92.00
2022-07-26T06:07:23.820Z,172.00
2022-07-26T06:12:23.144Z,116.00
2022-07-26T06:17:21.502Z,124.00
2022-07-26T06:22:21.659Z,112.00
2022-07-26T06:27:19.977Z,88.00
2022-07-26T06:32:19.303Z,80.00
2022-07-26T06:37:20.636Z,112.00
2022-07-26T06:42:17.912Z,92.00
2022-07-26T06:47:17.175Z,84.00
2022-07-26T06:52:18.478Z,72.00
2022-07-26T06:57:16.791Z,108.00
2022-07-26T07:02:15.179Z,100.00
2022-07-26T07:07:16.295Z,104.00
2022-07-26T07:12:13.604Z,128.00
2022-07-26T07:17:17.210Z,188.00
2022-07-26T07:22:13.096Z,172.00
2022-07-26T07:27:12.360Z,176.00
2022-07-26T07:32:18.211Z,184.00
2022-07-26T07:37:10.941Z,212.00
2022-07-26T07:42:11.183Z,212.00
2022-07-26T07:47:08.520Z,244.00
2022-07-26T07:52:07.624Z,276.00
2022-07-26T07:57:04.828Z,336.00
2022-07-26T08:02:07.150Z,8.00
2022-07-26T08:07:06.439Z,4.00
2022-07-26T08:12:05.720Z,4.00
2022-07-26T08:17:03.862Z,4.00
2022-07-26T08:22:02.991Z,4.00
2022-07-26T08:27:02.257Z,4.00
2022-07-26T08:32:03.682Z,4.00
2022-07-26T08:37:16.387Z,4.00
2022-07-26T08:42:00.944Z,4.00
2022-07-26T08:47:00.351Z,4.00
2022-07-26T08:51:58.477Z,4.00
2022-07-26T08:56:58.852Z,8.00
2022-07-26T09:01:57.044Z,8.00
2022-07-26T09:06:56.380Z,4.00
2022-07-26T09:11:55.724Z,8.00
2022-07-26T09:16:55.870Z,8.00
2022-07-26T09:21:56.247Z,8.00
2022-07-26T09:26:55.370Z,8.00
2022-07-26T09:31:53.718Z,8.00
2022-07-26T09:36:51.916Z,8.00
2022-07-26T09:42:10.938Z,12.00
2022-07-26T09:46:52.234Z,8.00
2022-07-26T09:51:49.394Z,8.00
2022-07-26T09:56:48.581Z,8.00
2022-07-26T10:01:47.788Z,8.00
2022-07-26T10:06:47.936Z,8.00
2022-07-26T10:11:46.133Z,8.00
2022-07-26T10:16:46.316Z,12.00
2022-07-26T10:21:45.442Z,8.00
2022-07-26T10:26:43.331Z,12.00
2022-07-26T10:31:44.764Z,12.00
2022-07-26T10:36:41.976Z,8.00
2022-07-26T10:41:42.289Z,12.00
2022-07-26T10:46:40.665Z,8.00
2022-07-26T10:51:41.796Z,12.00
2022-07-26T10:56:39.107Z,12.00
2022-07-26T11:01:38.472Z,12.00
2022-07-26T11:06:39.776Z,12.00
2022-07-26T11:11:36.109Z,12.00
2022-07-26T11:16:37.241Z,12.00
2022-07-26T11:21:35.582Z,12.00
2022-07-26T11:26:35.731Z,12.00
2022-07-26T11:31:49.586Z,12.00
2022-07-26T11:36:33.242Z,12.00
2022-07-26T11:41:34.373Z,12.00
2022-07-26T11:46:33.790Z,12.00
2022-07-26T11:51:30.933Z,12.00
2022-07-26T11:56:30.268Z,16.00
2022-07-26T12:01:31.591Z,12.00
2022-07-26T12:06:31.971Z,16.00
2022-07-26T12:11:29.108Z,16.00
2022-07-26T12:16:27.266Z,12.00
2022-07-26T12:21:26.434Z,12.00
2022-07-26T12:26:25.766Z,8.00
2022-07-26T12:31:24.997Z,12.00
2022-07-26T12:36:27.567Z,12.00
2022-07-26T12:41:23.450Z,12.00
2022-07-26T12:46:24.817Z,8.00
2022-07-26T12:51:21.951Z,8.00
2022-07-26T12:56:21.303Z,8.00
2022-07-26T13:01:20.515Z,8.00
2022-07-26T13:06:20.700Z,12.00
2022-07-26T13:11:19.830Z,12.00
2022-07-26T13:16:18.238Z,12.00
2022-07-26T13:21:17.472Z,12.00
2022-07-26T13:26:18.626Z,8.00
2022-07-26T13:31:16.025Z,8.00
2022-07-26T13:36:15.089Z,8.00
2022-07-26T13:41:14.241Z,12.00
2022-07-26T13:46:13.598Z,12.00
2022-07-26T13:51:12.756Z,12.00
2022-07-26T13:56:13.895Z,12.00
2022-07-26T14:01:12.294Z,12.00
2022-07-26T14:06:10.423Z,8.00
2022-07-26T14:11:10.763Z,8.00
2022-07-26T14:16:09.108Z,4.00
2022-07-26T14:21:10.682Z,4.00
2022-07-26T14:26:07.586Z,4.00
2022-07-26T14:31:09.987Z,4.00
2022-07-26T14:36:06.103Z,8.00
2022-07-26T14:41:06.418Z,8.00
2022-07-26T14:46:06.825Z,8.00
2022-07-26T14:51:09.430Z,4.00
2022-07-26T14:56:03.180Z,8.00
2022-07-26T15:01:03.403Z,8.00
2022-07-26T15:06:01.566Z,12.00
2022-07-26T15:11:00.891Z,8.00
2022-07-26T15:16:02.089Z,8.00
2022-07-26T15:20:59.252Z,8.00
2022-07-26T15:25:58.381Z,12.00
2022-07-26T15:30:59.702Z,8.00
2022-07-26T15:35:56.987Z,8.00
2022-07-26T15:40:56.302Z,8.00
2022-07-26T15:45:55.640Z,8.00
2022-07-26T15:50:56.780Z,12.00
2022-07-26T15:55:54.107Z,16.00
2022-07-26T16:00:55.287Z,12.00
2022-07-26T16:05:52.407Z,16.00
2022-07-26T16:10:52.737Z,16.00
2022-07-26T16:15:53.077Z,16.00
2022-07-26T16:20:50.396Z,12.00
2022-07-26T16:25:49.764Z,100.00
2022-07-26T16:30:49.916Z,100.00
2022-07-26T16:35:48.094Z,100.00
2022-07-26T16:40:47.281Z,100.00
2022-07-26T16:45:46.416Z,40.00
2022-07-26T16:50:47.555Z,32.00
2022-07-26T16:55:46.744Z,48.00
2022-07-26T17:00:44.937Z,24.00
2022-07-26T17:05:45.046Z,20.00
2022-07-26T17:10:43.338Z,16.00
2022-07-26T17:15:42.479Z,16.00
2022-07-26T17:20:41.813Z,16.00
2022-07-26T17:25:39.954Z,16.00
2022-07-26T17:30:40.098Z,12.00
2022-07-26T17:35:40.424Z,12.00
2022-07-26T17:40:37.765Z,12.00
2022-07-26T17:45:37.073Z,8.00
2022-07-26T17:50:38.414Z,8.00
2022-07-26T17:55:35.486Z,12.00
2022-07-26T18:00:34.620Z,12.00
2022-07-26T18:05:38.320Z,8.00
2022-07-26T18:10:33.912Z,8.00
2022-07-26T18:15:33.280Z,24.00
2022-07-26T18:20:31.415Z,16.00
2022-07-26T18:25:30.567Z,16.00
2022-07-26T18:30:29.680Z,16.00
2022-07-26T18:35:29.003Z,12.00
2022-07-26T18:40:28.323Z,8.00
2022-07-26T18:45:27.651Z,8.00
2022-07-26T18:50:26.989Z,8.00
2022-07-26T18:55:26.182Z,0.00
2022-07-26T19:00:26.513Z,4.00
2022-07-26T19:05:24.820Z,4.00
2022-07-26T19:10:26.167Z,4.00
2022-07-26T19:15:23.462Z,0.00
2022-07-26T19:20:22.811Z,4.00
2022-07-26T19:25:21.956Z,4.00
2022-07-26T19:30:22.281Z,0.00
2022-07-26T19:35:22.416Z,0.00
2022-07-26T19:40:19.744Z,0.00
2022-07-26T19:45:20.087Z,0.00
2022-07-26T19:50:18.247Z,4.00
2022-07-26T19:55:17.429Z,0.00
2022-07-26T20:00:17.577Z,4.00
2022-07-26T20:05:15.728Z,4.00
2022-07-26T20:10:15.899Z,4.00
2022-07-26T20:15:15.074Z,4.00
2022-07-26T20:20:14.201Z,4.00
2022-07-26T20:25:13.462Z,4.00
2022-07-26T20:30:12.857Z,4.00
2022-07-26T20:35:12.206Z,0.00
2022-07-26T20:40:10.325Z,0.00
2022-07-26T20:45:11.307Z,0.00
2022-07-26T20:50:08.968Z,0.00
2022-07-26T20:55:08.275Z,0.00
2022-07-26T21:00:07.561Z,4.00
2022-07-26T21:05:05.867Z,4.00
2022-07-26T21:10:06.170Z,4.00
2022-07-26T21:15:06.490Z,4.00
2022-07-26T21:20:04.891Z,4.00
2022-07-26T21:25:05.023Z,0.00
2022-07-26T21:30:03.352Z,0.00
2022-07-26T21:35:02.772Z,0.00
2022-07-26T21:40:01.955Z,0.00
2022-07-26T21:45:04.290Z,0.00
2022-07-26T21:50:00.588Z,0.00
2022-07-26T21:54:59.738Z,0.00
2022-07-26T21:59:58.950Z,0.00
2022-07-26T22:04:58.102Z,0.00
2022-07-26T22:09:58.222Z,0.00
2022-07-26T22:14:58.551Z,0.00
2022-07-26T22:19:56.852Z,0.00
2022-07-26T22:24:55.199Z,0.00
2022-07-26T22:29:54.457Z,0.00
2022-07-26T22:34:54.549Z,0.00
2022-07-26T22:39:56.001Z,0.00
2022-07-26T22:44:53.078Z,0.00
2022-07-26T22:49:54.509Z,0.00
2022-07-26T22:54:50.649Z,0.00
2022-07-26T22:59:49.778Z,0.00
2022-07-26T23:04:51.138Z,4.00
2022-07-26T23:09:48.293Z,4.00
2022-07-26T23:14:47.457Z,0.00
2022-07-26T23:19:46.654Z,0.00
2022-07-26T23:24:45.778Z,0.00
2022-07-26T23:29:45.095Z,0.00
2022-07-26T23:34:43.402Z,0.00
2022-07-26T23:39:41.721Z,0.00
2022-07-26T23:44:43.862Z,0.00
2022-07-26T23:49:42.196Z,0.00
2022-07-26T23:54:43.549Z,0.00
2022-07-26T23:59:42.674Z,0.00
